sensor_id;sensor_type;location;lat;lon;timestamp;P1;durP1;ratioP1;P2;durP2;ratioP2
13331;SDS011;6735;51.456;12.626;2024-03-02T00:01:50;38.83;;;24.10;;
13331;SDS011;6735;51.456;12.626;2024-03-02T00:04:16;45.10;;;24.37;;
13331;SDS011;6735;51.456;12.626;2024-03-02T00:06:42;43.37;;;24.50;;
13331;SDS011;6735;51.456;12.626;2024-03-02T00:09:08;45.67;;;25.47;;
13331;SDS011;6735;51.456;12.626;2024-03-02T00:11:36;40.43;;;24.03;;
13331;SDS011;6735;51.456;12.626;2024-03-02T00:14:01;44.23;;;24.83;;
13331;SDS011;6735;51.456;12.626;2024-03-02T00:16:31;41.87;;;24.37;;
13331;SDS011;6735;51.456;12.626;2024-03-02T00:19:01;40.80;;;24.37;;
13331;SDS011;6735;51.456;12.626;2024-03-02T00:21:36;47.43;;;23.33;;
13331;SDS011;6735;51.456;12.626;2024-03-02T00:24:01;40.13;;;23.80;;
13331;SDS011;6735;51.456;12.626;2024-03-02T00:26:34;42.20;;;23.53;;
13331;SDS011;6735;51.456;12.626;2024-03-02T00:28:59;43.80;;;24.03;;
13331;SDS011;6735;51.456;12.626;2024-03-02T00:31:25;43.47;;;23.43;;
13331;SDS011;6735;51.456;12.626;2024-03-02T00:33:51;43.10;;;23.83;;
13331;SDS011;6735;51.456;12.626;2024-03-02T00:36:25;39.30;;;23.80;;
13331;SDS011;6735;51.456;12.626;2024-03-02T00:38:52;40.23;;;22.97;;
13331;SDS011;6735;51.456;12.626;2024-03-02T00:41:21;40.17;;;23.40;;
13331;SDS011;6735;51.456;12.626;2024-03-02T00:46:34;44.23;;;22.43;;
13331;SDS011;6735;51.456;12.626;2024-03-02T00:49:02;42.30;;;23.40;;
13331;SDS011;6735;51.456;12.626;2024-03-02T00:51:30;42.93;;;22.70;;
13331;SDS011;6735;51.456;12.626;2024-03-02T00:54:00;43.70;;;23.13;;
13331;SDS011;6735;51.456;12.626;2024-03-02T00:56:30;38.00;;;23.13;;
13331;SDS011;6735;51.456;12.626;2024-03-02T00:58:56;41.30;;;22.43;;
13331;SDS011;6735;51.456;12.626;2024-03-02T01:01:21;44.80;;;23.40;;
13331;SDS011;6735;51.456;12.626;2024-03-02T01:03:47;42.27;;;24.17;;
13331;SDS011;6735;51.456;12.626;2024-03-02T01:06:13;45.20;;;24.07;;
13331;SDS011;6735;51.456;12.626;2024-03-02T01:08:39;40.77;;;23.10;;
13331;SDS011;6735;51.456;12.626;2024-03-02T01:11:05;43.53;;;23.90;;
13331;SDS011;6735;51.456;12.626;2024-03-02T01:13:31;41.87;;;23.20;;
13331;SDS011;6735;51.456;12.626;2024-03-02T01:15:57;41.00;;;22.33;;
13331;SDS011;6735;51.456;12.626;2024-03-02T01:18:23;45.53;;;23.17;;
13331;SDS011;6735;51.456;12.626;2024-03-02T01:20:48;39.07;;;21.83;;
13331;SDS011;6735;51.456;12.626;2024-03-02T01:23:17;39.50;;;22.87;;
13331;SDS011;6735;51.456;12.626;2024-03-02T01:25:46;40.70;;;22.60;;
13331;SDS011;6735;51.456;12.626;2024-03-02T01:28:12;40.27;;;23.13;;
13331;SDS011;6735;51.456;12.626;2024-03-02T01:30:38;40.13;;;22.47;;
13331;SDS011;6735;51.456;12.626;2024-03-02T01:33:04;42.00;;;23.20;;
13331;SDS011;6735;51.456;12.626;2024-03-02T01:35:30;42.57;;;24.83;;
13331;SDS011;6735;51.456;12.626;2024-03-02T01:37:56;39.77;;;22.97;;
13331;SDS011;6735;51.456;12.626;2024-03-02T01:40:22;42.63;;;23.77;;
13331;SDS011;6735;51.456;12.626;2024-03-02T01:42:51;40.70;;;23.13;;
13331;SDS011;6735;51.456;12.626;2024-03-02T01:45:19;38.07;;;22.53;;
13331;SDS011;6735;51.456;12.626;2024-03-02T01:47:44;40.50;;;23.67;;
13331;SDS011;6735;51.456;12.626;2024-03-02T01:50:13;41.00;;;23.37;;
13331;SDS011;6735;51.456;12.626;2024-03-02T01:52:39;40.40;;;22.43;;
13331;SDS011;6735;51.456;12.626;2024-03-02T01:55:04;41.20;;;22.67;;
13331;SDS011;6735;51.456;12.626;2024-03-02T01:57:31;43.40;;;22.70;;
13331;SDS011;6735;51.456;12.626;2024-03-02T01:59:57;39.67;;;21.97;;
13331;SDS011;6735;51.456;12.626;2024-03-02T02:02:23;40.23;;;23.40;;
13331;SDS011;6735;51.456;12.626;2024-03-02T02:04:48;41.37;;;22.90;;
13331;SDS011;6735;51.456;12.626;2024-03-02T02:07:14;41.77;;;22.27;;
13331;SDS011;6735;51.456;12.626;2024-03-02T02:09:42;39.60;;;22.97;;
13331;SDS011;6735;51.456;12.626;2024-03-02T02:12:08;41.33;;;22.63;;
13331;SDS011;6735;51.456;12.626;2024-03-02T02:14:34;43.53;;;23.60;;
13331;SDS011;6735;51.456;12.626;2024-03-02T02:17:00;39.83;;;24.07;;
13331;SDS011;6735;51.456;12.626;2024-03-02T02:19:26;38.70;;;23.17;;
13331;SDS011;6735;51.456;12.626;2024-03-02T02:21:52;42.43;;;23.50;;
13331;SDS011;6735;51.456;12.626;2024-03-02T02:24:17;46.70;;;22.40;;
13331;SDS011;6735;51.456;12.626;2024-03-02T02:26:43;39.90;;;23.17;;
13331;SDS011;6735;51.456;12.626;2024-03-02T02:29:09;43.07;;;24.37;;
13331;SDS011;6735;51.456;12.626;2024-03-02T02:31:38;40.60;;;22.97;;
13331;SDS011;6735;51.456;12.626;2024-03-02T02:34:04;41.63;;;23.07;;
13331;SDS011;6735;51.456;12.626;2024-03-02T02:36:30;44.33;;;23.10;;
13331;SDS011;6735;51.456;12.626;2024-03-02T02:38:56;40.27;;;23.07;;
13331;SDS011;6735;51.456;12.626;2024-03-02T02:41:22;39.30;;;22.33;;
13331;SDS011;6735;51.456;12.626;2024-03-02T02:43:47;42.77;;;22.60;;
13331;SDS011;6735;51.456;12.626;2024-03-02T02:46:13;45.10;;;23.57;;
13331;SDS011;6735;51.456;12.626;2024-03-02T02:48:38;39.20;;;23.53;;
13331;SDS011;6735;51.456;12.626;2024-03-02T02:51:04;41.37;;;22.77;;
13331;SDS011;6735;51.456;12.626;2024-03-02T02:53:29;38.97;;;23.00;;
13331;SDS011;6735;51.456;12.626;2024-03-02T02:55:54;35.13;;;20.80;;
13331;SDS011;6735;51.456;12.626;2024-03-02T02:58:20;38.37;;;20.97;;
13331;SDS011;6735;51.456;12.626;2024-03-02T03:00:46;37.60;;;19.87;;
13331;SDS011;6735;51.456;12.626;2024-03-02T03:03:11;35.40;;;20.93;;
13331;SDS011;6735;51.456;12.626;2024-03-02T03:05:37;34.83;;;20.10;;
13331;SDS011;6735;51.456;12.626;2024-03-02T03:08:02;36.83;;;22.27;;
13331;SDS011;6735;51.456;12.626;2024-03-02T03:10:28;35.70;;;19.73;;
13331;SDS011;6735;51.456;12.626;2024-03-02T03:12:53;36.37;;;20.83;;
13331;SDS011;6735;51.456;12.626;2024-03-02T03:15:21;37.67;;;20.97;;
13331;SDS011;6735;51.456;12.626;2024-03-02T03:17:46;39.87;;;21.13;;
13331;SDS011;6735;51.456;12.626;2024-03-02T03:20:12;36.20;;;20.60;;
13331;SDS011;6735;51.456;12.626;2024-03-02T03:22:38;38.30;;;20.50;;
13331;SDS011;6735;51.456;12.626;2024-03-02T03:25:04;31.97;;;20.67;;
13331;SDS011;6735;51.456;12.626;2024-03-02T03:27:29;37.00;;;19.90;;
13331;SDS011;6735;51.456;12.626;2024-03-02T03:29:55;36.50;;;20.33;;
13331;SDS011;6735;51.456;12.626;2024-03-02T03:32:21;36.90;;;19.77;;
13331;SDS011;6735;51.456;12.626;2024-03-02T03:34:47;37.53;;;20.90;;
13331;SDS011;6735;51.456;12.626;2024-03-02T03:37:13;41.97;;;21.37;;
13331;SDS011;6735;51.456;12.626;2024-03-02T03:39:39;33.67;;;19.83;;
13331;SDS011;6735;51.456;12.626;2024-03-02T03:42:04;34.60;;;19.63;;
13331;SDS011;6735;51.456;12.626;2024-03-02T03:44:30;34.60;;;20.37;;
13331;SDS011;6735;51.456;12.626;2024-03-02T03:46:55;31.37;;;17.97;;
13331;SDS011;6735;51.456;12.626;2024-03-02T03:49:21;34.60;;;19.40;;
13331;SDS011;6735;51.456;12.626;2024-03-02T03:51:46;30.07;;;18.20;;
13331;SDS011;6735;51.456;12.626;2024-03-02T03:54:12;31.40;;;19.17;;
13331;SDS011;6735;51.456;12.626;2024-03-02T03:56:37;31.83;;;18.37;;
13331;SDS011;6735;51.456;12.626;2024-03-02T03:59:03;33.37;;;18.80;;
13331;SDS011;6735;51.456;12.626;2024-03-02T04:01:29;31.97;;;18.23;;
13331;SDS011;6735;51.456;12.626;2024-03-02T04:03:55;32.77;;;18.97;;
13331;SDS011;6735;51.456;12.626;2024-03-02T04:06:20;33.33;;;19.17;;
13331;SDS011;6735;51.456;12.626;2024-03-02T04:08:46;33.00;;;18.10;;
13331;SDS011;6735;51.456;12.626;2024-03-02T04:11:11;30.73;;;17.73;;
13331;SDS011;6735;51.456;12.626;2024-03-02T04:13:37;33.10;;;18.70;;
13331;SDS011;6735;51.456;12.626;2024-03-02T04:16:02;32.00;;;18.53;;
13331;SDS011;6735;51.456;12.626;2024-03-02T04:18:30;32.53;;;18.50;;
13331;SDS011;6735;51.456;12.626;2024-03-02T04:20:55;35.63;;;17.93;;
13331;SDS011;6735;51.456;12.626;2024-03-02T04:23:21;30.83;;;17.87;;
13331;SDS011;6735;51.456;12.626;2024-03-02T04:25:46;32.07;;;17.73;;
13331;SDS011;6735;51.456;12.626;2024-03-02T04:28:12;27.80;;;18.30;;
13331;SDS011;6735;51.456;12.626;2024-03-02T04:30:37;28.90;;;16.87;;
13331;SDS011;6735;51.456;12.626;2024-03-02T04:33:03;29.30;;;17.97;;
13331;SDS011;6735;51.456;12.626;2024-03-02T04:35:29;34.80;;;18.93;;
13331;SDS011;6735;51.456;12.626;2024-03-02T04:37:54;34.73;;;18.30;;
13331;SDS011;6735;51.456;12.626;2024-03-02T04:40:20;34.13;;;18.03;;
13331;SDS011;6735;51.456;12.626;2024-03-02T04:42:45;30.23;;;16.90;;
13331;SDS011;6735;51.456;12.626;2024-03-02T04:45:10;36.03;;;18.87;;
13331;SDS011;6735;51.456;12.626;2024-03-02T04:47:36;31.70;;;17.60;;
13331;SDS011;6735;51.456;12.626;2024-03-02T04:50:01;30.67;;;18.23;;
13331;SDS011;6735;51.456;12.626;2024-03-02T04:52:27;32.47;;;18.40;;
13331;SDS011;6735;51.456;12.626;2024-03-02T04:54:53;33.93;;;17.83;;
13331;SDS011;6735;51.456;12.626;2024-03-02T04:57:34;34.30;;;18.87;;
13331;SDS011;6735;51.456;12.626;2024-03-02T05:00:00;34.67;;;17.80;;
13331;SDS011;6735;51.456;12.626;2024-03-02T05:02:26;37.47;;;18.43;;
13331;SDS011;6735;51.456;12.626;2024-03-02T05:04:51;37.43;;;18.40;;
13331;SDS011;6735;51.456;12.626;2024-03-02T05:07:16;36.93;;;18.33;;
13331;SDS011;6735;51.456;12.626;2024-03-02T05:09:42;36.50;;;17.60;;
13331;SDS011;6735;51.456;12.626;2024-03-02T05:12:07;34.17;;;19.00;;
13331;SDS011;6735;51.456;12.626;2024-03-02T05:15:00;33.00;;;18.67;;
13331;SDS011;6735;51.456;12.626;2024-03-02T05:17:26;35.10;;;17.43;;
13331;SDS011;6735;51.456;12.626;2024-03-02T05:19:52;36.63;;;18.83;;
13331;SDS011;6735;51.456;12.626;2024-03-02T05:22:17;34.17;;;17.37;;
13331;SDS011;6735;51.456;12.626;2024-03-02T05:24:43;38.50;;;17.23;;
13331;SDS011;6735;51.456;12.626;2024-03-02T05:27:08;35.53;;;18.07;;
13331;SDS011;6735;51.456;12.626;2024-03-02T05:29:34;33.27;;;18.80;;
13331;SDS011;6735;51.456;12.626;2024-03-02T05:31:59;34.80;;;19.30;;
13331;SDS011;6735;51.456;12.626;2024-03-02T05:34:25;42.87;;;18.57;;
13331;SDS011;6735;51.456;12.626;2024-03-02T05:36:50;35.80;;;18.40;;
13331;SDS011;6735;51.456;12.626;2024-03-02T05:39:15;38.40;;;18.57;;
13331;SDS011;6735;51.456;12.626;2024-03-02T05:41:41;35.47;;;18.73;;
13331;SDS011;6735;51.456;12.626;2024-03-02T05:44:06;37.67;;;17.03;;
13331;SDS011;6735;51.456;12.626;2024-03-02T05:46:32;36.67;;;17.47;;
13331;SDS011;6735;51.456;12.626;2024-03-02T05:48:58;37.97;;;18.80;;
13331;SDS011;6735;51.456;12.626;2024-03-02T05:51:24;34.57;;;17.50;;
13331;SDS011;6735;51.456;12.626;2024-03-02T05:53:50;33.40;;;17.23;;
13331;SDS011;6735;51.456;12.626;2024-03-02T05:56:15;36.20;;;17.83;;
13331;SDS011;6735;51.456;12.626;2024-03-02T05:58:41;38.87;;;19.30;;
13331;SDS011;6735;51.456;12.626;2024-03-02T06:01:25;38.40;;;20.23;;
13331;SDS011;6735;51.456;12.626;2024-03-02T06:03:56;36.33;;;19.10;;
13331;SDS011;6735;51.456;12.626;2024-03-02T06:06:22;40.27;;;19.07;;
13331;SDS011;6735;51.456;12.626;2024-03-02T06:08:48;39.43;;;19.20;;
13331;SDS011;6735;51.456;12.626;2024-03-02T06:11:13;42.93;;;18.90;;
13331;SDS011;6735;51.456;12.626;2024-03-02T06:13:39;40.50;;;18.53;;
13331;SDS011;6735;51.456;12.626;2024-03-02T06:16:04;41.80;;;19.23;;
13331;SDS011;6735;51.456;12.626;2024-03-02T06:18:30;40.93;;;20.30;;
13331;SDS011;6735;51.456;12.626;2024-03-02T06:20:55;36.70;;;20.03;;
13331;SDS011;6735;51.456;12.626;2024-03-02T06:23:21;40.77;;;20.37;;
13331;SDS011;6735;51.456;12.626;2024-03-02T06:25:46;42.47;;;21.30;;
13331;SDS011;6735;51.456;12.626;2024-03-02T06:28:12;39.37;;;19.37;;
13331;SDS011;6735;51.456;12.626;2024-03-02T06:30:40;42.50;;;19.13;;
13331;SDS011;6735;51.456;12.626;2024-03-02T06:33:06;37.60;;;18.57;;
13331;SDS011;6735;51.456;12.626;2024-03-02T06:35:31;37.20;;;19.80;;
13331;SDS011;6735;51.456;12.626;2024-03-02T06:37:57;40.50;;;18.77;;
13331;SDS011;6735;51.456;12.626;2024-03-02T06:40:22;37.57;;;19.00;;
13331;SDS011;6735;51.456;12.626;2024-03-02T06:42:47;35.23;;;18.73;;
13331;SDS011;6735;51.456;12.626;2024-03-02T06:45:13;38.40;;;19.33;;
13331;SDS011;6735;51.456;12.626;2024-03-02T06:47:38;39.63;;;19.97;;
13331;SDS011;6735;51.456;12.626;2024-03-02T06:50:04;39.87;;;19.23;;
13331;SDS011;6735;51.456;12.626;2024-03-02T06:52:30;38.83;;;18.87;;
13331;SDS011;6735;51.456;12.626;2024-03-02T06:54:55;37.33;;;18.63;;
13331;SDS011;6735;51.456;12.626;2024-03-02T06:57:21;40.60;;;19.07;;
13331;SDS011;6735;51.456;12.626;2024-03-02T06:59:46;38.17;;;20.20;;
13331;SDS011;6735;51.456;12.626;2024-03-02T07:02:15;37.20;;;19.70;;
13331;SDS011;6735;51.456;12.626;2024-03-02T07:04:40;40.17;;;19.93;;
13331;SDS011;6735;51.456;12.626;2024-03-02T07:07:05;36.03;;;19.23;;
13331;SDS011;6735;51.456;12.626;2024-03-02T07:09:31;42.73;;;19.70;;
13331;SDS011;6735;51.456;12.626;2024-03-02T07:11:56;38.70;;;19.70;;
13331;SDS011;6735;51.456;12.626;2024-03-02T07:14:22;38.10;;;20.10;;
13331;SDS011;6735;51.456;12.626;2024-03-02T07:17:07;34.43;;;18.70;;
13331;SDS011;6735;51.456;12.626;2024-03-02T07:19:33;37.50;;;19.53;;
13331;SDS011;6735;51.456;12.626;2024-03-02T07:21:58;36.27;;;19.40;;
13331;SDS011;6735;51.456;12.626;2024-03-02T07:24:24;36.13;;;19.37;;
13331;SDS011;6735;51.456;12.626;2024-03-02T07:26:49;35.37;;;18.83;;
13331;SDS011;6735;51.456;12.626;2024-03-02T07:29:15;35.77;;;18.77;;
13331;SDS011;6735;51.456;12.626;2024-03-02T07:31:40;36.23;;;21.00;;
13331;SDS011;6735;51.456;12.626;2024-03-02T07:34:06;33.57;;;18.60;;
13331;SDS011;6735;51.456;12.626;2024-03-02T07:36:31;34.67;;;19.47;;
13331;SDS011;6735;51.456;12.626;2024-03-02T07:38:57;32.50;;;19.07;;
13331;SDS011;6735;51.456;12.626;2024-03-02T07:41:23;39.37;;;18.30;;
13331;SDS011;6735;51.456;12.626;2024-03-02T07:43:48;31.67;;;18.63;;
13331;SDS011;6735;51.456;12.626;2024-03-02T07:46:14;33.10;;;18.67;;
13331;SDS011;6735;51.456;12.626;2024-03-02T07:48:39;37.40;;;20.33;;
13331;SDS011;6735;51.456;12.626;2024-03-02T07:51:07;32.27;;;17.80;;
13331;SDS011;6735;51.456;12.626;2024-03-02T07:53:32;32.57;;;17.70;;
13331;SDS011;6735;51.456;12.626;2024-03-02T07:55:58;33.33;;;17.93;;
13331;SDS011;6735;51.456;12.626;2024-03-02T07:58:27;32.37;;;17.60;;
13331;SDS011;6735;51.456;12.626;2024-03-02T08:00:52;31.70;;;18.50;;
13331;SDS011;6735;51.456;12.626;2024-03-02T08:03:18;32.53;;;18.53;;
13331;SDS011;6735;51.456;12.626;2024-03-02T08:05:44;33.67;;;18.57;;
13331;SDS011;6735;51.456;12.626;2024-03-02T08:08:09;29.03;;;17.37;;
13331;SDS011;6735;51.456;12.626;2024-03-02T08:10:35;34.73;;;18.50;;
13331;SDS011;6735;51.456;12.626;2024-03-02T08:13:00;33.20;;;18.33;;
13331;SDS011;6735;51.456;12.626;2024-03-02T08:15:26;32.07;;;17.27;;
13331;SDS011;6735;51.456;12.626;2024-03-02T08:17:51;26.80;;;16.90;;
13331;SDS011;6735;51.456;12.626;2024-03-02T08:20:17;31.73;;;16.37;;
13331;SDS011;6735;51.456;12.626;2024-03-02T08:22:43;29.63;;;16.63;;
13331;SDS011;6735;51.456;12.626;2024-03-02T08:25:10;28.77;;;17.87;;
13331;SDS011;6735;51.456;12.626;2024-03-02T08:27:36;30.07;;;17.27;;
13331;SDS011;6735;51.456;12.626;2024-03-02T08:30:01;27.17;;;16.00;;
13331;SDS011;6735;51.456;12.626;2024-03-02T08:32:31;27.87;;;16.50;;
13331;SDS011;6735;51.456;12.626;2024-03-02T08:34:56;31.37;;;17.17;;
13331;SDS011;6735;51.456;12.626;2024-03-02T08:37:22;26.97;;;15.93;;
13331;SDS011;6735;51.456;12.626;2024-03-02T08:39:47;27.57;;;16.33;;
13331;SDS011;6735;51.456;12.626;2024-03-02T08:42:13;28.20;;;16.00;;
13331;SDS011;6735;51.456;12.626;2024-03-02T08:44:38;30.20;;;15.57;;
13331;SDS011;6735;51.456;12.626;2024-03-02T08:47:04;28.43;;;15.73;;
13331;SDS011;6735;51.456;12.626;2024-03-02T08:49:29;27.30;;;16.07;;
13331;SDS011;6735;51.456;12.626;2024-03-02T08:51:55;27.13;;;16.27;;
13331;SDS011;6735;51.456;12.626;2024-03-02T08:54:21;26.10;;;15.03;;
13331;SDS011;6735;51.456;12.626;2024-03-02T08:56:47;26.70;;;16.07;;
13331;SDS011;6735;51.456;12.626;2024-03-02T08:59:13;26.70;;;16.43;;
13331;SDS011;6735;51.456;12.626;2024-03-02T09:01:39;27.37;;;15.33;;
13331;SDS011;6735;51.456;12.626;2024-03-02T09:04:06;30.67;;;16.77;;
13331;SDS011;6735;51.456;12.626;2024-03-02T09:06:33;28.07;;;15.50;;
13331;SDS011;6735;51.456;12.626;2024-03-02T09:08:59;28.07;;;16.03;;
13331;SDS011;6735;51.456;12.626;2024-03-02T09:11:25;26.17;;;16.30;;
13331;SDS011;6735;51.456;12.626;2024-03-02T09:13:51;25.93;;;16.03;;
13331;SDS011;6735;51.456;12.626;2024-03-02T09:16:16;26.30;;;15.53;;
13331;SDS011;6735;51.456;12.626;2024-03-02T09:18:42;27.90;;;16.43;;
13331;SDS011;6735;51.456;12.626;2024-03-02T09:21:07;26.03;;;15.87;;
13331;SDS011;6735;51.456;12.626;2024-03-02T09:23:33;26.37;;;15.33;;
13331;SDS011;6735;51.456;12.626;2024-03-02T09:25:59;25.80;;;15.63;;
13331;SDS011;6735;51.456;12.626;2024-03-02T09:28:24;23.83;;;16.07;;
13331;SDS011;6735;51.456;12.626;2024-03-02T09:30:50;28.90;;;16.43;;
13331;SDS011;6735;51.456;12.626;2024-03-02T09:33:15;25.07;;;15.30;;
13331;SDS011;6735;51.456;12.626;2024-03-02T09:35:41;25.00;;;15.37;;
13331;SDS011;6735;51.456;12.626;2024-03-02T09:38:06;26.10;;;15.87;;
13331;SDS011;6735;51.456;12.626;2024-03-02T09:40:32;30.23;;;16.67;;
13331;SDS011;6735;51.456;12.626;2024-03-02T09:42:57;26.20;;;16.50;;
13331;SDS011;6735;51.456;12.626;2024-03-02T09:45:23;26.47;;;15.57;;
13331;SDS011;6735;51.456;12.626;2024-03-02T09:47:50;25.50;;;15.83;;
13331;SDS011;6735;51.456;12.626;2024-03-02T09:50:15;28.10;;;16.20;;
13331;SDS011;6735;51.456;12.626;2024-03-02T09:52:42;25.97;;;15.53;;
13331;SDS011;6735;51.456;12.626;2024-03-02T09:55:08;27.47;;;15.53;;
13331;SDS011;6735;51.456;12.626;2024-03-02T09:57:34;32.20;;;16.53;;
13331;SDS011;6735;51.456;12.626;2024-03-02T09:59:59;26.30;;;15.20;;
13331;SDS011;6735;51.456;12.626;2024-03-02T10:02:25;26.67;;;15.60;;
13331;SDS011;6735;51.456;12.626;2024-03-02T10:04:51;25.83;;;14.90;;
13331;SDS011;6735;51.456;12.626;2024-03-02T10:07:17;23.07;;;14.50;;
13331;SDS011;6735;51.456;12.626;2024-03-02T10:09:44;22.70;;;14.60;;
13331;SDS011;6735;51.456;12.626;2024-03-02T10:12:12;25.30;;;14.30;;
13331;SDS011;6735;51.456;12.626;2024-03-02T10:14:38;21.90;;;14.23;;
13331;SDS011;6735;51.456;12.626;2024-03-02T10:17:08;24.03;;;14.43;;
13331;SDS011;6735;51.456;12.626;2024-03-02T10:19:35;25.43;;;15.60;;
13331;SDS011;6735;51.456;12.626;2024-03-02T10:22:05;24.57;;;15.00;;
13331;SDS011;6735;51.456;12.626;2024-03-02T10:24:50;20.90;;;14.30;;
13331;SDS011;6735;51.456;12.626;2024-03-02T10:27:16;24.03;;;14.20;;
13331;SDS011;6735;51.456;12.626;2024-03-02T10:29:45;22.90;;;13.80;;
13331;SDS011;6735;51.456;12.626;2024-03-02T10:32:11;21.93;;;13.80;;
13331;SDS011;6735;51.456;12.626;2024-03-02T10:34:39;22.87;;;13.33;;
13331;SDS011;6735;51.456;12.626;2024-03-02T10:37:05;19.73;;;13.60;;
13331;SDS011;6735;51.456;12.626;2024-03-02T10:39:32;21.87;;;14.93;;
13331;SDS011;6735;51.456;12.626;2024-03-02T10:42:00;21.80;;;14.10;;
13331;SDS011;6735;51.456;12.626;2024-03-02T10:44:28;21.87;;;13.83;;
13331;SDS011;6735;51.456;12.626;2024-03-02T10:46:54;25.40;;;14.53;;
13331;SDS011;6735;51.456;12.626;2024-03-02T10:49:21;20.03;;;13.60;;
13331;SDS011;6735;51.456;12.626;2024-03-02T10:51:49;18.53;;;12.90;;
13331;SDS011;6735;51.456;12.626;2024-03-02T10:54:15;22.70;;;13.93;;
13331;SDS011;6735;51.456;12.626;2024-03-02T10:56:41;19.67;;;13.30;;
13331;SDS011;6735;51.456;12.626;2024-03-02T11:01:59;16.00;;;11.30;;
13331;SDS011;6735;51.456;12.626;2024-03-02T11:04:26;18.00;;;13.00;;
13331;SDS011;6735;51.456;12.626;2024-03-02T11:06:54;20.13;;;12.40;;
13331;SDS011;6735;51.456;12.626;2024-03-02T11:09:29;16.10;;;11.10;;
13331;SDS011;6735;51.456;12.626;2024-03-02T11:12:00;15.20;;;10.63;;
13331;SDS011;6735;51.456;12.626;2024-03-02T11:14:27;13.33;;;9.70;;
13331;SDS011;6735;51.456;12.626;2024-03-02T11:16:57;15.20;;;10.23;;
13331;SDS011;6735;51.456;12.626;2024-03-02T11:19:23;17.93;;;9.77;;
13331;SDS011;6735;51.456;12.626;2024-03-02T11:21:50;13.53;;;8.60;;
13331;SDS011;6735;51.456;12.626;2024-03-02T11:26:53;13.33;;;8.17;;
13331;SDS011;6735;51.456;12.626;2024-03-02T11:32:13;10.93;;;8.27;;
13331;SDS011;6735;51.456;12.626;2024-03-02T11:34:44;13.37;;;8.87;;
13331;SDS011;6735;51.456;12.626;2024-03-02T11:37:17;11.63;;;7.90;;
13331;SDS011;6735;51.456;12.626;2024-03-02T11:39:45;11.77;;;8.20;;
13331;SDS011;6735;51.456;12.626;2024-03-02T11:42:12;10.97;;;7.53;;
13331;SDS011;6735;51.456;12.626;2024-03-02T11:44:39;10.43;;;7.43;;
13331;SDS011;6735;51.456;12.626;2024-03-02T11:47:07;11.17;;;7.00;;
13331;SDS011;6735;51.456;12.626;2024-03-02T11:49:36;9.43;;;7.10;;
13331;SDS011;6735;51.456;12.626;2024-03-02T11:52:02;12.70;;;8.63;;
13331;SDS011;6735;51.456;12.626;2024-03-02T11:54:29;10.80;;;7.73;;
13331;SDS011;6735;51.456;12.626;2024-03-02T11:56:59;11.37;;;8.00;;
13331;SDS011;6735;51.456;12.626;2024-03-02T11:59:27;12.23;;;8.93;;
13331;SDS011;6735;51.456;12.626;2024-03-02T12:01:54;13.37;;;8.77;;
13331;SDS011;6735;51.456;12.626;2024-03-02T12:04:19;12.63;;;8.30;;
13331;SDS011;6735;51.456;12.626;2024-03-02T12:06:56;11.70;;;8.43;;
13331;SDS011;6735;51.456;12.626;2024-03-02T12:09:26;12.70;;;8.53;;
13331;SDS011;6735;51.456;12.626;2024-03-02T12:12:05;12.37;;;8.37;;
13331;SDS011;6735;51.456;12.626;2024-03-02T12:14:32;9.83;;;7.50;;
13331;SDS011;6735;51.456;12.626;2024-03-02T12:16:58;11.37;;;7.87;;
13331;SDS011;6735;51.456;12.626;2024-03-02T12:19:25;12.40;;;8.27;;
13331;SDS011;6735;51.456;12.626;2024-03-02T12:21:52;9.83;;;7.77;;
13331;SDS011;6735;51.456;12.626;2024-03-02T12:24:18;11.13;;;7.23;;
13331;SDS011;6735;51.456;12.626;2024-03-02T12:26:44;12.17;;;8.43;;
13331;SDS011;6735;51.456;12.626;2024-03-02T12:29:10;12.47;;;9.17;;
13331;SDS011;6735;51.456;12.626;2024-03-02T12:31:35;11.53;;;8.70;;
13331;SDS011;6735;51.456;12.626;2024-03-02T12:34:02;13.23;;;9.27;;
13331;SDS011;6735;51.456;12.626;2024-03-02T12:36:28;12.83;;;8.40;;
13331;SDS011;6735;51.456;12.626;2024-03-02T12:38:54;12.10;;;9.03;;
13331;SDS011;6735;51.456;12.626;2024-03-02T12:41:20;10.27;;;8.30;;
13331;SDS011;6735;51.456;12.626;2024-03-02T12:43:46;13.63;;;8.57;;
13331;SDS011;6735;51.456;12.626;2024-03-02T12:46:11;13.17;;;8.53;;
13331;SDS011;6735;51.456;12.626;2024-03-02T12:48:37;12.37;;;8.80;;
13331;SDS011;6735;51.456;12.626;2024-03-02T12:51:05;12.77;;;8.70;;
13331;SDS011;6735;51.456;12.626;2024-03-02T12:53:31;11.23;;;8.40;;
13331;SDS011;6735;51.456;12.626;2024-03-02T12:55:57;10.80;;;8.13;;
13331;SDS011;6735;51.456;12.626;2024-03-02T12:58:23;11.60;;;8.37;;
13331;SDS011;6735;51.456;12.626;2024-03-02T13:00:48;11.23;;;8.67;;
13331;SDS011;6735;51.456;12.626;2024-03-02T13:03:14;10.27;;;8.30;;
13331;SDS011;6735;51.456;12.626;2024-03-02T13:05:40;10.80;;;7.80;;
13331;SDS011;6735;51.456;12.626;2024-03-02T13:08:06;10.90;;;8.10;;
13331;SDS011;6735;51.456;12.626;2024-03-02T13:10:32;12.73;;;8.10;;
13331;SDS011;6735;51.456;12.626;2024-03-02T13:12:58;9.30;;;7.10;;
13331;SDS011;6735;51.456;12.626;2024-03-02T13:15:23;8.90;;;6.87;;
13331;SDS011;6735;51.456;12.626;2024-03-02T13:17:52;10.13;;;7.43;;
13331;SDS011;6735;51.456;12.626;2024-03-02T13:20:17;10.40;;;6.87;;
13331;SDS011;6735;51.456;12.626;2024-03-02T13:22:44;9.40;;;6.70;;
13331;SDS011;6735;51.456;12.626;2024-03-02T13:25:09;8.30;;;6.13;;
13331;SDS011;6735;51.456;12.626;2024-03-02T13:27:37;8.63;;;6.00;;
13331;SDS011;6735;51.456;12.626;2024-03-02T13:30:03;6.67;;;5.70;;
13331;SDS011;6735;51.456;12.626;2024-03-02T13:32:30;8.40;;;6.37;;
13331;SDS011;6735;51.456;12.626;2024-03-02T13:34:56;8.83;;;6.67;;
13331;SDS011;6735;51.456;12.626;2024-03-02T13:37:22;9.30;;;6.33;;
13331;SDS011;6735;51.456;12.626;2024-03-02T13:39:47;9.47;;;6.50;;
13331;SDS011;6735;51.456;12.626;2024-03-02T13:42:13;9.37;;;6.30;;
13331;SDS011;6735;51.456;12.626;2024-03-02T13:44:40;6.97;;;5.90;;
13331;SDS011;6735;51.456;12.626;2024-03-02T13:47:06;7.03;;;5.47;;
13331;SDS011;6735;51.456;12.626;2024-03-02T13:49:32;7.23;;;5.83;;
13331;SDS011;6735;51.456;12.626;2024-03-02T13:52:08;7.10;;;5.67;;
13331;SDS011;6735;51.456;12.626;2024-03-02T13:54:38;5.27;;;4.77;;
13331;SDS011;6735;51.456;12.626;2024-03-02T13:57:07;4.53;;;4.13;;
13331;SDS011;6735;51.456;12.626;2024-03-02T13:59:34;5.27;;;4.23;;
13331;SDS011;6735;51.456;12.626;2024-03-02T14:02:01;5.47;;;3.90;;
13331;SDS011;6735;51.456;12.626;2024-03-02T14:04:29;4.73;;;4.23;;
13331;SDS011;6735;51.456;12.626;2024-03-02T14:06:55;6.33;;;4.87;;
13331;SDS011;6735;51.456;12.626;2024-03-02T14:09:21;5.90;;;4.50;;
13331;SDS011;6735;51.456;12.626;2024-03-02T14:11:46;7.20;;;5.27;;
13331;SDS011;6735;51.456;12.626;2024-03-02T14:14:12;6.80;;;5.47;;
13331;SDS011;6735;51.456;12.626;2024-03-02T14:16:38;6.53;;;5.17;;
13331;SDS011;6735;51.456;12.626;2024-03-02T14:19:04;7.00;;;4.97;;
13331;SDS011;6735;51.456;12.626;2024-03-02T14:21:30;8.53;;;4.97;;
13331;SDS011;6735;51.456;12.626;2024-03-02T14:23:56;6.57;;;5.20;;
13331;SDS011;6735;51.456;12.626;2024-03-02T14:26:21;8.53;;;6.77;;
13331;SDS011;6735;51.456;12.626;2024-03-02T14:28:47;11.07;;;8.17;;
13331;SDS011;6735;51.456;12.626;2024-03-02T14:31:12;8.77;;;7.60;;
13331;SDS011;6735;51.456;12.626;2024-03-02T14:33:38;8.33;;;7.40;;